sensor_id;sensor_type;location;lat;lon;timestamp;P1;durP1;ratioP1;P2;durP2;ratioP2
50976;SDS011;36992;48.200;12.418;2022-10-28T00:01:08;2.75;;;0.95;;
50976;SDS011;36992;48.200;12.418;2022-10-28T00:03:36;3.10;;;1.05;;
50976;SDS011;36992;48.200;12.418;2022-10-28T00:06:05;2.70;;;1.20;;
50976;SDS011;36992;48.200;12.418;2022-10-28T00:08:33;3.05;;;1.50;;
50976;SDS011;36992;48.200;12.418;2022-10-28T00:11:02;3.58;;;1.40;;
50976;SDS011;36992;48.200;12.418;2022-10-28T00:13:32;6.97;;;1.70;;
50976;SDS011;36992;48.200;12.418;2022-10-28T00:16:05;4.10;;;1.23;;
50976;SDS011;36992;48.200;12.418;2022-10-28T00:18:34;2.72;;;1.13;;
50976;SDS011;36992;48.200;12.418;2022-10-28T00:21:02;2.50;;;0.80;;
50976;SDS011;36992;48.200;12.418;2022-10-28T00:23:30;2.70;;;1.17;;
50976;SDS011;36992;48.200;12.418;2022-10-28T00:26:03;5.00;;;1.40;;
50976;SDS011;36992;48.200;12.418;2022-10-28T00:28:31;4.18;;;1.63;;
50976;SDS011;36992;48.200;12.418;2022-10-28T00:31:01;2.20;;;0.95;;
50976;SDS011;36992;48.200;12.418;2022-10-28T00:33:29;3.45;;;0.90;;
50976;SDS011;36992;48.200;12.418;2022-10-28T00:35:56;2.30;;;1.00;;
50976;SDS011;36992;48.200;12.418;2022-10-28T00:38:31;2.88;;;0.70;;
50976;SDS011;36992;48.200;12.418;2022-10-28T00:40:58;4.97;;;1.40;;
50976;SDS011;36992;48.200;12.418;2022-10-28T00:43:33;3.30;;;0.75;;
50976;SDS011;36992;48.200;12.418;2022-10-28T00:46:01;2.60;;;1.00;;
50976;SDS011;36992;48.200;12.418;2022-10-28T00:48:28;2.38;;;0.93;;
50976;SDS011;36992;48.200;12.418;2022-10-28T00:50:55;3.05;;;1.02;;
50976;SDS011;36992;48.200;12.418;2022-10-28T00:53:23;3.53;;;1.10;;
50976;SDS011;36992;48.200;12.418;2022-10-28T00:55:53;2.60;;;1.08;;
50976;SDS011;36992;48.200;12.418;2022-10-28T00:58:22;4.60;;;1.15;;
50976;SDS011;36992;48.200;12.418;2022-10-28T01:00:52;2.00;;;0.80;;
50976;SDS011;36992;48.200;12.418;2022-10-28T01:03:19;2.70;;;1.13;;
50976;SDS011;36992;48.200;12.418;2022-10-28T01:05:47;2.25;;;1.30;;
50976;SDS011;36992;48.200;12.418;2022-10-28T01:08:15;2.65;;;0.90;;
50976;SDS011;36992;48.200;12.418;2022-10-28T01:10:46;2.92;;;1.00;;
50976;SDS011;36992;48.200;12.418;2022-10-28T01:13:35;2.15;;;0.52;;
50976;SDS011;36992;48.200;12.418;2022-10-28T01:16:13;3.88;;;1.50;;
50976;SDS011;36992;48.200;12.418;2022-10-28T01:18:51;1.75;;;0.70;;
50976;SDS011;36992;48.200;12.418;2022-10-28T01:21:37;4.25;;;0.95;;
50976;SDS011;36992;48.200;12.418;2022-10-28T01:24:24;2.25;;;1.25;;
50976;SDS011;36992;48.200;12.418;2022-10-28T01:27:06;1.85;;;0.63;;
50976;SDS011;36992;48.200;12.418;2022-10-28T01:30:08;2.08;;;0.80;;
50976;SDS011;36992;48.200;12.418;2022-10-28T01:32:42;4.15;;;0.90;;
50976;SDS011;36992;48.200;12.418;2022-10-28T01:35:18;1.92;;;0.70;;
50976;SDS011;36992;48.200;12.418;2022-10-28T01:37:53;2.35;;;0.80;;
50976;SDS011;36992;48.200;12.418;2022-10-28T01:40:31;2.17;;;0.50;;
50976;SDS011;36992;48.200;12.418;2022-10-28T01:43:05;2.35;;;0.88;;
50976;SDS011;36992;48.200;12.418;2022-10-28T01:45:36;2.80;;;1.30;;
50976;SDS011;36992;48.200;12.418;2022-10-28T01:48:11;3.42;;;1.20;;
50976;SDS011;36992;48.200;12.418;2022-10-28T01:50:42;3.13;;;1.23;;
50976;SDS011;36992;48.200;12.418;2022-10-28T01:53:16;3.10;;;1.33;;
50976;SDS011;36992;48.200;12.418;2022-10-28T01:55:45;2.88;;;1.52;;
50976;SDS011;36992;48.200;12.418;2022-10-28T01:58:16;2.70;;;1.05;;
50976;SDS011;36992;48.200;12.418;2022-10-28T02:00:45;2.60;;;1.17;;
50976;SDS011;36992;48.200;12.418;2022-10-28T02:03:14;3.05;;;1.02;;
50976;SDS011;36992;48.200;12.418;2022-10-28T02:05:42;2.65;;;1.20;;
50976;SDS011;36992;48.200;12.418;2022-10-28T02:11:18;3.00;;;1.10;;
50976;SDS011;36992;48.200;12.418;2022-10-28T02:13:57;1.73;;;0.70;;
50976;SDS011;36992;48.200;12.418;2022-10-28T02:16:34;1.95;;;0.70;;
50976;SDS011;36992;48.200;12.418;2022-10-28T02:19:12;1.90;;;0.85;;
50976;SDS011;36992;48.200;12.418;2022-10-28T02:21:45;1.90;;;1.00;;
50976;SDS011;36992;48.200;12.418;2022-10-28T02:24:21;2.40;;;0.95;;
50976;SDS011;36992;48.200;12.418;2022-10-28T02:26:55;1.80;;;0.70;;
50976;SDS011;36992;48.200;12.418;2022-10-28T02:29:28;3.00;;;1.40;;
50976;SDS011;36992;48.200;12.418;2022-10-28T02:32:00;2.60;;;0.90;;
50976;SDS011;36992;48.200;12.418;2022-10-28T02:34:32;2.80;;;0.93;;
50976;SDS011;36992;48.200;12.418;2022-10-28T02:37:02;1.92;;;0.60;;
50976;SDS011;36992;48.200;12.418;2022-10-28T02:39:33;1.40;;;0.60;;
50976;SDS011;36992;48.200;12.418;2022-10-28T02:42:05;1.92;;;0.98;;
50976;SDS011;36992;48.200;12.418;2022-10-28T02:44:37;4.72;;;1.08;;
50976;SDS011;36992;48.200;12.418;2022-10-28T02:47:06;1.70;;;0.95;;
50976;SDS011;36992;48.200;12.418;2022-10-28T02:49:38;3.95;;;0.80;;
50976;SDS011;36992;48.200;12.418;2022-10-28T02:52:08;2.67;;;0.82;;
50976;SDS011;36992;48.200;12.418;2022-10-28T02:54:37;2.10;;;0.63;;
50976;SDS011;36992;48.200;12.418;2022-10-28T02:57:07;2.40;;;0.80;;
50976;SDS011;36992;48.200;12.418;2022-10-28T02:59:37;1.50;;;0.70;;
50976;SDS011;36992;48.200;12.418;2022-10-28T03:02:03;3.92;;;0.90;;
50976;SDS011;36992;48.200;12.418;2022-10-28T03:04:30;2.63;;;1.02;;
50976;SDS011;36992;48.200;12.418;2022-10-28T03:06:58;2.65;;;1.45;;
50976;SDS011;36992;48.200;12.418;2022-10-28T03:09:25;1.65;;;0.68;;
50976;SDS011;36992;48.200;12.418;2022-10-28T03:11:51;3.40;;;1.30;;
50976;SDS011;36992;48.200;12.418;2022-10-28T03:14:18;3.13;;;1.40;;
50976;SDS011;36992;48.200;12.418;2022-10-28T03:16:44;2.75;;;1.00;;
50976;SDS011;36992;48.200;12.418;2022-10-28T03:19:11;3.92;;;1.48;;
50976;SDS011;36992;48.200;12.418;2022-10-28T03:21:37;3.92;;;1.45;;
50976;SDS011;36992;48.200;12.418;2022-10-28T03:24:06;3.15;;;1.17;;
50976;SDS011;36992;48.200;12.418;2022-10-28T03:26:32;2.85;;;1.10;;
50976;SDS011;36992;48.200;12.418;2022-10-28T03:28:59;3.17;;;1.30;;
50976;SDS011;36992;48.200;12.418;2022-10-28T03:31:25;2.03;;;1.02;;
50976;SDS011;36992;48.200;12.418;2022-10-28T03:33:52;2.30;;;1.05;;
50976;SDS011;36992;48.200;12.418;2022-10-28T03:36:18;2.75;;;1.08;;
50976;SDS011;36992;48.200;12.418;2022-10-28T03:38:45;2.45;;;1.20;;
50976;SDS011;36992;48.200;12.418;2022-10-28T03:41:13;3.13;;;0.70;;
50976;SDS011;36992;48.200;12.418;2022-10-28T03:43:39;3.75;;;1.30;;
50976;SDS011;36992;48.200;12.418;2022-10-28T03:46:06;3.45;;;0.90;;
50976;SDS011;36992;48.200;12.418;2022-10-28T03:48:33;2.97;;;1.23;;
50976;SDS011;36992;48.200;12.418;2022-10-28T03:50:59;2.25;;;0.98;;
50976;SDS011;36992;48.200;12.418;2022-10-28T03:53:26;3.35;;;1.50;;
50976;SDS011;36992;48.200;12.418;2022-10-28T03:55:53;4.13;;;1.08;;
50976;SDS011;36992;48.200;12.418;2022-10-28T03:58:21;3.55;;;1.20;;
50976;SDS011;36992;48.200;12.418;2022-10-28T04:00:48;2.97;;;1.30;;
50976;SDS011;36992;48.200;12.418;2022-10-28T04:03:15;3.03;;;1.05;;
50976;SDS011;36992;48.200;12.418;2022-10-28T04:05:42;4.07;;;1.30;;
50976;SDS011;36992;48.200;12.418;2022-10-28T04:08:09;2.40;;;0.90;;
50976;SDS011;36992;48.200;12.418;2022-10-28T04:10:36;2.63;;;1.33;;
50976;SDS011;36992;48.200;12.418;2022-10-28T04:13:03;2.50;;;0.95;;
50976;SDS011;36992;48.200;12.418;2022-10-28T04:15:32;2.28;;;0.90;;
50976;SDS011;36992;48.200;12.418;2022-10-28T04:17:58;3.72;;;0.90;;
50976;SDS011;36992;48.200;12.418;2022-10-28T04:20:25;4.18;;;0.90;;
50976;SDS011;36992;48.200;12.418;2022-10-28T04:22:52;2.45;;;0.70;;
50976;SDS011;36992;48.200;12.418;2022-10-28T04:25:19;2.65;;;0.95;;
50976;SDS011;36992;48.200;12.418;2022-10-28T04:27:46;2.47;;;1.02;;
50976;SDS011;36992;48.200;12.418;2022-10-28T04:30:13;2.85;;;1.08;;
50976;SDS011;36992;48.200;12.418;2022-10-28T04:32:42;2.13;;;0.88;;
50976;SDS011;36992;48.200;12.418;2022-10-28T04:35:09;2.67;;;1.00;;
50976;SDS011;36992;48.200;12.418;2022-10-28T04:37:37;2.38;;;0.82;;
50976;SDS011;36992;48.200;12.418;2022-10-28T04:40:04;3.90;;;0.77;;
50976;SDS011;36992;48.200;12.418;2022-10-28T04:42:32;4.00;;;0.80;;
50976;SDS011;36992;48.200;12.418;2022-10-28T04:44:59;2.30;;;0.75;;
50976;SDS011;36992;48.200;12.418;2022-10-28T04:47:26;2.22;;;0.75;;
50976;SDS011;36992;48.200;12.418;2022-10-28T04:49:54;1.77;;;1.00;;
50976;SDS011;36992;48.200;12.418;2022-10-28T04:52:20;2.30;;;0.93;;
50976;SDS011;36992;48.200;12.418;2022-10-28T04:54:47;3.30;;;0.93;;
50976;SDS011;36992;48.200;12.418;2022-10-28T04:57:13;3.50;;;0.98;;
50976;SDS011;36992;48.200;12.418;2022-10-28T04:59:40;2.90;;;1.20;;
50976;SDS011;36992;48.200;12.418;2022-10-28T05:02:06;3.08;;;1.05;;
50976;SDS011;36992;48.200;12.418;2022-10-28T05:04:33;3.03;;;1.25;;
50976;SDS011;36992;48.200;12.418;2022-10-28T05:07:01;4.22;;;1.10;;
50976;SDS011;36992;48.200;12.418;2022-10-28T05:09:27;2.50;;;0.90;;
50976;SDS011;36992;48.200;12.418;2022-10-28T05:11:54;4.35;;;1.42;;
50976;SDS011;36992;48.200;12.418;2022-10-28T05:14:20;5.13;;;1.38;;
50976;SDS011;36992;48.200;12.418;2022-10-28T05:16:47;4.13;;;1.30;;
50976;SDS011;36992;48.200;12.418;2022-10-28T05:19:14;5.47;;;1.50;;
50976;SDS011;36992;48.200;12.418;2022-10-28T05:21:40;3.47;;;1.15;;
50976;SDS011;36992;48.200;12.418;2022-10-28T05:24:08;2.55;;;0.98;;
50976;SDS011;36992;48.200;12.418;2022-10-28T05:26:35;3.95;;;0.95;;
50976;SDS011;36992;48.200;12.418;2022-10-28T05:29:01;1.33;;;0.80;;
50976;SDS011;36992;48.200;12.418;2022-10-28T05:31:28;3.60;;;1.20;;
50976;SDS011;36992;48.200;12.418;2022-10-28T05:33:54;3.83;;;1.45;;
50976;SDS011;36992;48.200;12.418;2022-10-28T05:36:21;3.13;;;1.58;;
50976;SDS011;36992;48.200;12.418;2022-10-28T05:38:47;4.18;;;1.75;;
50976;SDS011;36992;48.200;12.418;2022-10-28T05:41:15;3.13;;;1.50;;
50976;SDS011;36992;48.200;12.418;2022-10-28T05:43:42;3.17;;;1.77;;
50976;SDS011;36992;48.200;12.418;2022-10-28T05:46:09;3.03;;;1.50;;
50976;SDS011;36992;48.200;12.418;2022-10-28T05:48:35;3.25;;;1.40;;
50976;SDS011;36992;48.200;12.418;2022-10-28T05:51:02;3.88;;;1.35;;
50976;SDS011;36992;48.200;12.418;2022-10-28T05:53:29;3.30;;;1.70;;
50976;SDS011;36992;48.200;12.418;2022-10-28T05:55:55;3.45;;;1.73;;
50976;SDS011;36992;48.200;12.418;2022-10-28T05:58:23;2.97;;;1.48;;
50976;SDS011;36992;48.200;12.418;2022-10-28T06:00:50;2.88;;;1.52;;
50976;SDS011;36992;48.200;12.418;2022-10-28T06:03:16;3.90;;;1.67;;
50976;SDS011;36992;48.200;12.418;2022-10-28T06:05:43;3.28;;;1.40;;
50976;SDS011;36992;48.200;12.418;2022-10-28T06:08:10;2.55;;;1.20;;
50976;SDS011;36992;48.200;12.418;2022-10-28T06:10:38;2.95;;;1.20;;
50976;SDS011;36992;48.200;12.418;2022-10-28T06:13:05;3.13;;;0.98;;
50976;SDS011;36992;48.200;12.418;2022-10-28T06:15:34;2.13;;;1.10;;
50976;SDS011;36992;48.200;12.418;2022-10-28T06:18:00;2.65;;;1.05;;
50976;SDS011;36992;48.200;12.418;2022-10-28T06:20:27;3.08;;;1.48;;
50976;SDS011;36992;48.200;12.418;2022-10-28T06:22:54;4.60;;;1.60;;
50976;SDS011;36992;48.200;12.418;2022-10-28T06:25:23;3.03;;;1.58;;
50976;SDS011;36992;48.200;12.418;2022-10-28T06:27:51;3.67;;;1.40;;
50976;SDS011;36992;48.200;12.418;2022-10-28T06:30:18;2.97;;;1.17;;
50976;SDS011;36992;48.200;12.418;2022-10-28T06:32:46;3.42;;;1.83;;
50976;SDS011;36992;48.200;12.418;2022-10-28T06:35:12;2.97;;;1.20;;
50976;SDS011;36992;48.200;12.418;2022-10-28T06:37:39;4.47;;;1.20;;
50976;SDS011;36992;48.200;12.418;2022-10-28T06:40:06;3.10;;;1.30;;
50976;SDS011;36992;48.200;12.418;2022-10-28T06:42:34;1.65;;;0.82;;
50976;SDS011;36992;48.200;12.418;2022-10-28T06:45:00;3.75;;;1.27;;
50976;SDS011;36992;48.200;12.418;2022-10-28T06:47:27;1.73;;;0.80;;
50976;SDS011;36992;48.200;12.418;2022-10-28T06:49:55;2.40;;;0.80;;
50976;SDS011;36992;48.200;12.418;2022-10-28T06:52:21;2.40;;;1.02;;
50976;SDS011;36992;48.200;12.418;2022-10-28T06:54:48;3.55;;;1.23;;
50976;SDS011;36992;48.200;12.418;2022-10-28T06:57:14;3.10;;;1.02;;
50976;SDS011;36992;48.200;12.418;2022-10-28T06:59:41;4.95;;;0.90;;
50976;SDS011;36992;48.200;12.418;2022-10-28T07:02:08;2.20;;;0.90;;
50976;SDS011;36992;48.200;12.418;2022-10-28T07:04:35;1.60;;;0.50;;
50976;SDS011;36992;48.200;12.418;2022-10-28T07:07:03;2.55;;;0.70;;
50976;SDS011;36992;48.200;12.418;2022-10-28T07:09:30;2.03;;;0.70;;
50976;SDS011;36992;48.200;12.418;2022-10-28T07:11:57;1.80;;;0.50;;
50976;SDS011;36992;48.200;12.418;2022-10-28T07:14:24;1.63;;;0.50;;
50976;SDS011;36992;48.200;12.418;2022-10-28T07:16:51;2.03;;;0.70;;
50976;SDS011;36992;48.200;12.418;2022-10-28T07:19:18;1.63;;;0.60;;
50976;SDS011;36992;48.200;12.418;2022-10-28T07:21:46;1.20;;;0.52;;
50976;SDS011;36992;48.200;12.418;2022-10-28T07:24:14;2.22;;;0.75;;
50976;SDS011;36992;48.200;12.418;2022-10-28T07:26:40;5.72;;;0.50;;
50976;SDS011;36992;48.200;12.418;2022-10-28T07:29:07;1.65;;;0.57;;
50976;SDS011;36992;48.200;12.418;2022-10-28T07:31:34;4.55;;;0.95;;
50976;SDS011;36992;48.200;12.418;2022-10-28T07:34:00;1.45;;;0.45;;
50976;SDS011;36992;48.200;12.418;2022-10-28T07:36:27;1.55;;;0.60;;
50976;SDS011;36992;48.200;12.418;2022-10-28T07:38:53;1.13;;;0.50;;
50976;SDS011;36992;48.200;12.418;2022-10-28T07:41:21;1.63;;;0.40;;
50976;SDS011;36992;48.200;12.418;2022-10-28T07:43:48;1.55;;;0.40;;
50976;SDS011;36992;48.200;12.418;2022-10-28T07:46:15;1.85;;;0.45;;
50976;SDS011;36992;48.200;12.418;2022-10-28T07:48:44;1.45;;;0.50;;
50976;SDS011;36992;48.200;12.418;2022-10-28T07:51:11;1.52;;;0.50;;
50976;SDS011;36992;48.200;12.418;2022-10-28T07:53:40;1.65;;;0.57;;
50976;SDS011;36992;48.200;12.418;2022-10-28T07:56:08;1.35;;;0.40;;
50976;SDS011;36992;48.200;12.418;2022-10-28T07:58:39;1.75;;;0.85;;
50976;SDS011;36992;48.200;12.418;2022-10-28T08:01:07;2.58;;;0.40;;
50976;SDS011;36992;48.200;12.418;2022-10-28T08:03:34;1.73;;;0.60;;
50976;SDS011;36992;48.200;12.418;2022-10-28T08:06:02;1.08;;;0.40;;
50976;SDS011;36992;48.200;12.418;2022-10-28T08:08:30;1.77;;;0.45;;
50976;SDS011;36992;48.200;12.418;2022-10-28T08:10:56;1.02;;;0.30;;
50976;SDS011;36992;48.200;12.418;2022-10-28T08:13:23;1.88;;;0.55;;
50976;SDS011;36992;48.200;12.418;2022-10-28T08:15:51;2.10;;;0.50;;
50976;SDS011;36992;48.200;12.418;2022-10-28T08:18:18;1.73;;;0.63;;
50976;SDS011;36992;48.200;12.418;2022-10-28T08:20:45;1.58;;;0.50;;
50976;SDS011;36992;48.200;12.418;2022-10-28T08:23:12;2.65;;;0.40;;
50976;SDS011;36992;48.200;12.418;2022-10-28T08:25:45;2.42;;;0.50;;
50976;SDS011;36992;48.200;12.418;2022-10-28T08:28:13;1.20;;;0.20;;
50976;SDS011;36992;48.200;12.418;2022-10-28T08:30:40;1.90;;;0.40;;
50976;SDS011;36992;48.200;12.418;2022-10-28T08:33:08;3.63;;;0.80;;
50976;SDS011;36992;48.200;12.418;2022-10-28T08:35:35;1.95;;;0.50;;
50976;SDS011;36992;48.200;12.418;2022-10-28T08:38:01;6.63;;;0.82;;
50976;SDS011;36992;48.200;12.418;2022-10-28T08:40:31;1.98;;;0.40;;
50976;SDS011;36992;48.200;12.418;2022-10-28T08:43:04;3.40;;;1.13;;
50976;SDS011;36992;48.200;12.418;2022-10-28T08:45:40;1.23;;;0.40;;
50976;SDS011;36992;48.200;12.418;2022-10-28T08:48:19;1.25;;;0.38;;
50976;SDS011;36992;48.200;12.418;2022-10-28T08:50:52;3.05;;;0.95;;
50976;SDS011;36992;48.200;12.418;2022-10-28T08:53:22;4.00;;;0.40;;
50976;SDS011;36992;48.200;12.418;2022-10-28T08:55:54;1.60;;;0.40;;
50976;SDS011;36992;48.200;12.418;2022-10-28T08:58:31;1.20;;;0.35;;
50976;SDS011;36992;48.200;12.418;2022-10-28T09:01:01;1.80;;;0.40;;
50976;SDS011;36992;48.200;12.418;2022-10-28T09:03:32;3.20;;;0.50;;
50976;SDS011;36992;48.200;12.418;2022-10-28T09:06:04;0.70;;;0.25;;
50976;SDS011;36992;48.200;12.418;2022-10-28T09:08:32;2.05;;;0.30;;
50976;SDS011;36992;48.200;12.418;2022-10-28T09:11:12;1.13;;;0.40;;
50976;SDS011;36992;48.200;12.418;2022-10-28T09:13:57;3.53;;;0.82;;
50976;SDS011;36992;48.200;12.418;2022-10-28T09:16:35;2.72;;;0.65;;
50976;SDS011;36992;48.200;12.418;2022-10-28T09:19:14;2.05;;;0.55;;
50976;SDS011;36992;48.200;12.418;2022-10-28T09:21:51;1.73;;;0.50;;
50976;SDS011;36992;48.200;12.418;2022-10-28T09:24:28;2.40;;;0.50;;
50976;SDS011;36992;48.200;12.418;2022-10-28T09:27:07;2.45;;;0.50;;
50976;SDS011;36992;48.200;12.418;2022-10-28T09:29:43;1.60;;;0.43;;
50976;SDS011;36992;48.200;12.418;2022-10-28T09:32:20;2.40;;;0.30;;
50976;SDS011;36992;48.200;12.418;2022-10-28T09:37:26;2.35;;;0.38;;
50976;SDS011;36992;48.200;12.418;2022-10-28T09:39:59;2.13;;;0.90;;
50976;SDS011;36992;48.200;12.418;2022-10-28T09:42:31;1.80;;;0.40;;
50976;SDS011;36992;48.200;12.418;2022-10-28T09:45:05;1.75;;;0.50;;
50976;SDS011;36992;48.200;12.418;2022-10-28T09:47:39;2.45;;;0.43;;
50976;SDS011;36992;48.200;12.418;2022-10-28T09:50:12;3.55;;;0.43;;
50976;SDS011;36992;48.200;12.418;2022-10-28T09:52:45;2.28;;;0.75;;
50976;SDS011;36992;48.200;12.418;2022-10-28T09:55:20;2.50;;;0.50;;
50976;SDS011;36992;48.200;12.418;2022-10-28T09:57:47;4.00;;;0.38;;
50976;SDS011;36992;48.200;12.418;2022-10-28T10:00:15;2.92;;;0.40;;
50976;SDS011;36992;48.200;12.418;2022-10-28T10:02:42;3.20;;;0.50;;
50976;SDS011;36992;48.200;12.418;2022-10-28T10:05:10;2.58;;;0.47;;
50976;SDS011;36992;48.200;12.418;2022-10-28T10:07:42;1.98;;;0.63;;
50976;SDS011;36992;48.200;12.418;2022-10-28T10:10:12;3.55;;;0.40;;
50976;SDS011;36992;48.200;12.418;2022-10-28T10:12:41;2.25;;;0.60;;
50976;SDS011;36992;48.200;12.418;2022-10-28T10:15:10;1.35;;;0.40;;
50976;SDS011;36992;48.200;12.418;2022-10-28T10:17:42;1.95;;;0.52;;
50976;SDS011;36992;48.200;12.418;2022-10-28T10:20:10;4.07;;;0.70;;
50976;SDS011;36992;48.200;12.418;2022-10-28T10:22:43;2.13;;;0.57;;
50976;SDS011;36992;48.200;12.418;2022-10-28T10:25:22;2.58;;;0.77;;
50976;SDS011;36992;48.200;12.418;2022-10-28T10:27:51;4.72;;;0.60;;
50976;SDS011;36992;48.200;12.418;2022-10-28T10:30:23;1.60;;;0.50;;
50976;SDS011;36992;48.200;12.418;2022-10-28T10:32:53;2.22;;;0.52;;
50976;SDS011;36992;48.200;12.418;2022-10-28T10:35:23;2.65;;;0.63;;
50976;SDS011;36992;48.200;12.418;2022-10-28T10:37:51;2.03;;;0.40;;
50976;SDS011;36992;48.200;12.418;2022-10-28T10:40:22;2.28;;;0.40;;
50976;SDS011;36992;48.200;12.418;2022-10-28T10:42:50;1.90;;;0.32;;
50976;SDS011;36992;48.200;12.418;2022-10-28T10:45:19;1.42;;;0.47;;
50976;SDS011;36992;48.200;12.418;2022-10-28T10:48:05;4.35;;;0.70;;
50976;SDS011;36992;48.200;12.418;2022-10-28T10:50:37;1.50;;;0.40;;
50976;SDS011;36992;48.200;12.418;2022-10-28T10:53:04;2.85;;;0.50;;
50976;SDS011;36992;48.200;12.418;2022-10-28T10:55:34;4.45;;;0.88;;
50976;SDS011;36992;48.200;12.418;2022-10-28T10:58:04;3.03;;;0.73;;
50976;SDS011;36992;48.200;12.418;2022-10-28T11:00:34;1.73;;;0.57;;
50976;SDS011;36992;48.200;12.418;2022-10-28T11:03:03;3.05;;;0.50;;
50976;SDS011;36992;48.200;12.418;2022-10-28T11:05:32;3.25;;;0.60;;
50976;SDS011;36992;48.200;12.418;2022-10-28T11:08:00;2.00;;;0.40;;
50976;SDS011;36992;48.200;12.418;2022-10-28T11:10:30;2.50;;;0.50;;
50976;SDS011;36992;48.200;12.418;2022-10-28T11:13:01;1.60;;;0.50;;
50976;SDS011;36992;48.200;12.418;2022-10-28T11:15:31;1.35;;;0.40;;
50976;SDS011;36992;48.200;12.418;2022-10-28T11:17:59;2.47;;;0.70;;
50976;SDS011;36992;48.200;12.418;2022-10-28T11:20:28;0.88;;;0.30;;
50976;SDS011;36992;48.200;12.418;2022-10-28T11:23:13;1.88;;;0.70;;
50976;SDS011;36992;48.200;12.418;2022-10-28T11:25:52;1.60;;;0.50;;
50976;SDS011;36992;48.200;12.418;2022-10-28T11:28:32;2.65;;;0.50;;
50976;SDS011;36992;48.200;12.418;2022-10-28T11:31:14;2.85;;;0.45;;
50976;SDS011;36992;48.200;12.418;2022-10-28T11:34:00;4.40;;;0.50;;
50976;SDS011;36992;48.200;12.418;2022-10-28T11:36:39;2.35;;;0.30;;
50976;SDS011;36992;48.200;12.418;2022-10-28T11:39:17;2.65;;;0.40;;
50976;SDS011;36992;48.200;12.418;2022-10-28T11:41:54;2.55;;;0.50;;
50976;SDS011;36992;48.200;12.418;2022-10-28T11:44:37;2.83;;;1.02;;
50976;SDS011;36992;48.200;12.418;2022-10-28T11:47:14;4.63;;;0.75;;
50976;SDS011;36992;48.200;12.418;2022-10-28T11:50:07;3.15;;;1.00;;
50976;SDS011;36992;48.200;12.418;2022-10-28T11:52:54;6.15;;;1.27;;
50976;SDS011;36992;48.200;12.418;2022-10-28T11:55:34;4.32;;;0.60;;
50976;SDS011;36992;48.200;12.418;2022-10-28T11:58:11;3.30;;;0.73;;
50976;SDS011;36992;48.200;12.418;2022-10-28T12:00:47;3.95;;;0.70;;
50976;SDS011;36992;48.200;12.418;2022-10-28T12:03:32;2.17;;;0.95;;
50976;SDS011;36992;48.200;12.418;2022-10-28T12:06:14;3.03;;;0.35;;
50976;SDS011;36992;48.200;12.418;2022-10-28T12:08:49;3.28;;;0.60;;
50976;SDS011;36992;48.200;12.418;2022-10-28T12:11:31;2.38;;;0.60;;
50976;SDS011;36992;48.200;12.418;2022-10-28T12:14:09;4.30;;;0.70;;
50976;SDS011;36992;48.200;12.418;2022-10-28T12:16:43;1.92;;;0.47;;
50976;SDS011;36992;48.200;12.418;2022-10-28T12:19:16;1.42;;;0.50;;
50976;SDS011;36992;48.200;12.418;2022-10-28T12:21:47;3.05;;;0.70;;
50976;SDS011;36992;48.200;12.418;2022-10-28T12:24:20;1.50;;;0.40;;
50976;SDS011;36992;48.200;12.418;2022-10-28T12:26:50;2.03;;;0.60;;
50976;SDS011;36992;48.200;12.418;2022-10-28T12:29:21;2.35;;;0.50;;
50976;SDS011;36992;48.200;12.418;2022-10-28T12:31:52;1.50;;;0.47;;
50976;SDS011;36992;48.200;12.418;2022-10-28T12:34:24;3.10;;;0.50;;
50976;SDS011;36992;48.200;12.418;2022-10-28T12:36:57;1.95;;;0.40;;
50976;SDS011;36992;48.200;12.418;2022-10-28T12:39:27;2.72;;;0.60;;
50976;SDS011;36992;48.200;12.418;2022-10-28T12:42:01;3.17;;;1.05;;
50976;SDS011;36992;48.200;12.418;2022-10-28T12:44:31;2.65;;;0.93;;
50976;SDS011;36992;48.200;12.418;2022-10-28T12:47:02;3.97;;;1.10;;
50976;SDS011;36992;48.200;12.418;2022-10-28T12:49:38;2.80;;;0.60;;
50976;SDS011;36992;48.200;12.418;2022-10-28T12:52:18;2.58;;;0.40;;
50976;SDS011;36992;48.200;12.418;2022-10-28T12:54:53;2.85;;;0.40;;
50976;SDS011;36992;48.200;12.418;2022-10-28T12:57:28;2.00;;;0.40;;
50976;SDS011;36992;48.200;12.418;2022-10-28T12:59:58;3.00;;;0.50;;
50976;SDS011;36992;48.200;12.418;2022-10-28T13:02:29;2.10;;;0.63;;
50976;SDS011;36992;48.200;12.418;2022-10-28T13:05:02;1.55;;;0.40;;
50976;SDS011;36992;48.200;12.418;2022-10-28T13:07:34;1.60;;;0.28;;
50976;SDS011;36992;48.200;12.418;2022-10-28T13:10:16;2.22;;;0.40;;
50976;SDS011;36992;48.200;12.418;2022-10-28T13:16:00;1.50;;;0.30;;
50976;SDS011;36992;48.200;12.418;2022-10-28T13:21:30;0.82;;;0.20;;
50976;SDS011;36992;48.200;12.418;2022-10-28T13:24:11;2.00;;;0.40;;
50976;SDS011;36992;48.200;12.418;2022-10-28T13:26:45;1.20;;;0.38;;
50976;SDS011;36992;48.200;12.418;2022-10-28T13:29:21;0.73;;;0.20;;
50976;SDS011;36992;48.200;12.418;2022-10-28T13:31:50;2.63;;;0.20;;
50976;SDS011;36992;48.200;12.418;2022-10-28T13:34:18;1.13;;;0.40;;
50976;SDS011;36992;48.200;12.418;2022-10-28T13:36:53;2.00;;;0.25;;
50976;SDS011;36992;48.200;12.418;2022-10-28T13:39:23;2.78;;;0.55;;
50976;SDS011;36992;48.200;12.418;2022-10-28T13:44:52;3.88;;;0.70;;
50976;SDS011;36992;48.200;12.418;2022-10-28T13:47:24;1.88;;;0.73;;
50976;SDS011;36992;48.200;12.418;2022-10-28T13:56:10;3.90;;;0.47;;
50976;SDS011;36992;48.200;12.418;2022-10-28T13:58:50;3.10;;;1.05;;
50976;SDS011;36992;48.200;12.418;2022-10-28T14:01:35;1.42;;;0.22;;
50976;SDS011;36992;48.200;12.418;2022-10-28T14:04:04;4.38;;;0.28;;
50976;SDS011;36992;48.200;12.418;2022-10-28T14:06:43;1.50;;;0.30;;
50976;SDS011;36992;48.200;12.418;2022-10-28T14:09:17;2.53;;;0.57;;
50976;SDS011;36992;48.200;12.418;2022-10-28T14:11:56;3.30;;;0.20;;
50976;SDS011;36992;48.200;12.418;2022-10-28T14:14:50;1.10;;;0.20;;
50976;SDS011;36992;48.200;12.418;2022-10-28T14:17:22;0.50;;;0.13;;
50976;SDS011;36992;48.200;12.418;2022-10-28T14:19:51;1.15;;;0.40;;
50976;SDS011;36992;48.200;12.418;2022-10-28T14:22:26;1.77;;;0.30;;
50976;SDS011;36992;48.200;12.418;2022-10-28T14:24:54;2.92;;;0.30;;
50976;SDS011;36992;48.200;12.418;2022-10-28T14:27:27;0.57;;;0.20;;
50976;SDS011;36992;48.200;12.418;2022-10-28T14:30:16;1.40;;;0.30;;
50976;SDS011;36992;48.200;12.418;2022-10-28T14:32:56;1.17;;;0.30;;
50976;SDS011;36992;48.200;12.418;2022-10-28T14:35:27;2.35;;;0.20;;
50976;SDS011;36992;48.200;12.418;2022-10-28T14:38:12;3.13;;;0.28;;
50976;SDS011;36992;48.200;12.418;2022-10-28T14:40:53;1.60;;;0.20;;
50976;SDS011;36992;48.200;12.418;2022-10-28T14:43:33;2.30;;;0.30;;
50976;SDS011;36992;48.200;12.418;2022-10-28T14:46:12;3.97;;;0.40;;
50976;SDS011;36992;48.200;12.418;2022-10-28T14:48:51;1.90;;;0.40;;
50976;SDS011;36992;48.200;12.418;2022-10-28T14:51:21;3.40;;;0.93;;
50976;SDS011;36992;48.200;12.418;2022-10-28T14:53:50;2.38;;;0.40;;
50976;SDS011;36992;48.200;12.418;2022-10-28T14:56:22;1.77;;;0.20;;
50976;SDS011;36992;48.200;12.418;2022-10-28T14:58:50;2.95;;;0.47;;
50976;SDS011;36992;48.200;12.418;2022-10-28T15:01:20;1.30;;;0.40;;
50976;SDS011;36992;48.200;12.418;2022-10-28T15:03:51;2.17;;;0.20;;
50976;SDS011;36992;48.200;12.418;2022-10-28T15:06:24;0.85;;;0.25;;
50976;SDS011;36992;48.200;12.418;2022-10-28T15:08:53;3.03;;;0.30;;
50976;SDS011;36992;48.200;12.418;2022-10-28T15:11:20;0.80;;;0.20;;
50976;SDS011;36992;48.200;12.418;2022-10-28T15:13:48;1.17;;;0.30;;
50976;SDS011;36992;48.200;12.418;2022-10-28T15:16:18;1.30;;;0.40;;